• Join FlightAware (Why Join?)
  • Login
  • US Flag 
06:24AM EDT


 

Airport Tracker/Info


-or-


 

Live Flight TrackerFlight Track Log ✈ EGF4129 ✈ 11-Jun-2013 ✈ KCMI - KORD

Flight Track Log - Related Links

Times and Time Zones

All times are in EDT time to prevent confusion due to time zone crossing. See the EGF4129 flight status page for this flight to view local times or setup timezone preferences in your user account.

Time Position Orientation Groundspeed Altitude Reporting Facility
EDT Latitude Longitude Course Direction KTS MPH feet Rate Location/Type
07:09PM 40.0906 -88.2481 337° Northwest 243 280 5,000  Level Chicago Center
07:10PM 40.2444 -88.3866 335° Northwest  Level FlightAware Approximate
07:10PM 40.1514 -88.2969 328° Northwest 254 292 7,900  Level Chicago Center
07:11PM 40.3140 -88.4269 346° North  Level FlightAware Approximate
07:11PM 40.2117 -88.3356 334° Northwest 256 295 9,900  Level Chicago Center
07:12PM 40.3830 -88.4706 330° Northwest  Level FlightAware Approximate
07:12PM 40.3042 -88.3961 333° Northwest 315 362 10,900  Level Chicago Center
07:13PM 40.4534 -88.5114 337° Northwest  Level FlightAware Approximate
07:13PM 40.3872 -88.4500 334° Northwest 332 382 12,200  Level Chicago Center
07:14PM 40.5241 -88.5518 337° Northwest  Level FlightAware Approximate
07:14PM 40.4725 -88.5036 334° Northwest 340 391 13,700  Level Chicago Center
07:15PM 40.5600 -88.5606 334° Northwest 350 403 15,100 1,020 Climbing Chicago Center
07:16PM 40.6492 -88.6200 333° Northwest 358 412 15,900 420 Climbing Chicago Center
07:17PM 40.7344 -88.6753 334° Northwest 345 397 16,000  Climbing Chicago Center
07:18PM 40.8322 -88.7342 336° Northwest 322 371 16,000 -540 Level Chicago Center
07:19PM 40.9250 -88.7192 North 335 386 15,000 -960 Descending Chicago Center
07:20PM 41.0194 -88.7039 North 342 394 14,000 -1,020 Descending Chicago Center
07:21PM 41.1131 -88.6881 North 341 392 12,900 -1,020 Descending Chicago Center
07:22PM 41.2083 -88.6744 North 343 395 11,900 -960 Descending Chicago Center
07:23PM 41.3197 -88.6581 North 338 389 11,000 -480 Descending Chicago Center
07:24PM 41.4106 -88.5961 27° Northeast 372 428 11,000  Level Chicago Center
07:26PM 41.4878 -88.4994 43° Northeast 378 435 11,000  Level Chicago Center
07:27PM 41.5647 -88.4069 42° Northeast 373 429 11,000  Level Chicago Center
07:28PM 41.6433 -88.3175 40° Northeast 370 426 11,000  Level Chicago Center
07:29PM 41.7164 -88.2283 42° Northeast 356 410 11,000 -600 Level Chicago Center
07:30PM 41.7803 -88.1536 41° Northeast 304 350 9,800 -1,740 Descending Chicago Center
07:31PM 41.8436 -88.0644 46° Northeast 279 321 7,500 -1,380 Descending Chicago Center
07:32PM 41.8847 -87.9800 57° Northeast 272 313 7,000 -240 Descending Chicago Center
07:33PM 41.8833 -87.8667 91° East 218 251 7,000  Level Chicago TRACON
07:34PM 41.8844 -87.8108 88° East 217 250 7,000 -480 Level Chicago Center
07:35PM 41.8833 -87.7356 91° East 205 236 6,100 -1,140 Descending Chicago Center
07:36PM 41.8839 -87.6439 90° East 204 235 4,700 -1,020 Descending Chicago Center
07:37PM 41.9308 -87.6175 23° Northeast 204 235 4,000 -480 Descending Chicago Center
07:38PM 41.9553 -87.6667 304° West 183 211 3,800 -240 Descending Chicago Center